sensor_id;sensor_type;location;lat;lon;timestamp;P1;durP1;ratioP1;P2;durP2;ratioP2
56299;SDS011;42209;6.376;-10.782;2024-01-07T00:02:13;30.60;;;21.13;;
56299;SDS011;42209;6.376;-10.782;2024-01-07T00:07:09;33.75;;;22.30;;
56299;SDS011;42209;6.376;-10.782;2024-01-07T00:09:38;28.60;;;20.75;;
56299;SDS011;42209;6.376;-10.782;2024-01-07T00:12:06;29.58;;;21.92;;
56299;SDS011;42209;6.376;-10.782;2024-01-07T00:14:35;33.92;;;21.08;;
56299;SDS011;42209;6.376;-10.782;2024-01-07T00:17:03;32.88;;;23.20;;
56299;SDS011;42209;6.376;-10.782;2024-01-07T00:19:32;30.15;;;21.42;;
56299;SDS011;42209;6.376;-10.782;2024-01-07T00:22:00;31.70;;;22.83;;
56299;SDS011;42209;6.376;-10.782;2024-01-07T00:26:57;32.00;;;22.85;;
56299;SDS011;42209;6.376;-10.782;2024-01-07T00:29:25;32.97;;;22.50;;
56299;SDS011;42209;6.376;-10.782;2024-01-07T00:31:54;41.22;;;24.10;;
56299;SDS011;42209;6.376;-10.782;2024-01-07T00:34:22;31.02;;;22.65;;
56299;SDS011;42209;6.376;-10.782;2024-01-07T00:39:19;33.63;;;23.83;;
56299;SDS011;42209;6.376;-10.782;2024-01-07T00:41:48;33.97;;;22.88;;
56299;SDS011;42209;6.376;-10.782;2024-01-07T00:44:17;47.58;;;22.77;;
56299;SDS011;42209;6.376;-10.782;2024-01-07T00:46:45;35.47;;;24.00;;
56299;SDS011;42209;6.376;-10.782;2024-01-07T00:49:15;32.30;;;22.75;;
56299;SDS011;42209;6.376;-10.782;2024-01-07T00:51:43;32.17;;;23.23;;
56299;SDS011;42209;6.376;-10.782;2024-01-07T00:59:09;30.48;;;20.58;;
56299;SDS011;42209;6.376;-10.782;2024-01-07T01:01:37;36.00;;;23.13;;
56299;SDS011;42209;6.376;-10.782;2024-01-07T01:06:35;32.38;;;22.17;;
56299;SDS011;42209;6.376;-10.782;2024-01-07T01:09:03;36.50;;;22.38;;
56299;SDS011;42209;6.376;-10.782;2024-01-07T01:11:32;32.25;;;21.60;;
56299;SDS011;42209;6.376;-10.782;2024-01-07T01:14:00;29.40;;;21.98;;
56299;SDS011;42209;6.376;-10.782;2024-01-07T01:16:28;34.35;;;21.70;;
56299;SDS011;42209;6.376;-10.782;2024-01-07T01:18:57;31.38;;;21.42;;
56299;SDS011;42209;6.376;-10.782;2024-01-07T01:21:25;33.13;;;21.63;;
56299;SDS011;42209;6.376;-10.782;2024-01-07T01:23:54;27.42;;;21.92;;
56299;SDS011;42209;6.376;-10.782;2024-01-07T01:26:22;33.25;;;21.50;;
56299;SDS011;42209;6.376;-10.782;2024-01-07T01:28:52;32.45;;;21.85;;
56299;SDS011;42209;6.376;-10.782;2024-01-07T01:31:20;28.58;;;21.05;;
56299;SDS011;42209;6.376;-10.782;2024-01-07T01:36:18;30.75;;;21.73;;
56299;SDS011;42209;6.376;-10.782;2024-01-07T01:38:46;30.38;;;21.25;;
56299;SDS011;42209;6.376;-10.782;2024-01-07T01:41:18;31.23;;;20.90;;
56299;SDS011;42209;6.376;-10.782;2024-01-07T01:43:46;29.35;;;21.83;;
56299;SDS011;42209;6.376;-10.782;2024-01-07T01:46:14;28.42;;;20.83;;
56299;SDS011;42209;6.376;-10.782;2024-01-07T01:48:43;28.80;;;21.80;;
56299;SDS011;42209;6.376;-10.782;2024-01-07T01:51:12;30.40;;;22.60;;
56299;SDS011;42209;6.376;-10.782;2024-01-07T01:53:40;31.02;;;19.75;;
56299;SDS011;42209;6.376;-10.782;2024-01-07T01:56:09;31.20;;;21.65;;
56299;SDS011;42209;6.376;-10.782;2024-01-07T02:01:06;29.92;;;21.30;;
56299;SDS011;42209;6.376;-10.782;2024-01-07T02:03:35;34.55;;;23.08;;
56299;SDS011;42209;6.376;-10.782;2024-01-07T02:06:04;34.40;;;23.33;;
56299;SDS011;42209;6.376;-10.782;2024-01-07T02:08:33;33.45;;;23.83;;
56299;SDS011;42209;6.376;-10.782;2024-01-07T02:11:22;33.63;;;22.88;;
56299;SDS011;42209;6.376;-10.782;2024-01-07T02:13:50;35.25;;;22.90;;
56299;SDS011;42209;6.376;-10.782;2024-01-07T02:16:18;35.05;;;23.73;;
56299;SDS011;42209;6.376;-10.782;2024-01-07T02:21:15;30.05;;;22.77;;
56299;SDS011;42209;6.376;-10.782;2024-01-07T02:23:43;34.72;;;23.45;;
56299;SDS011;42209;6.376;-10.782;2024-01-07T02:26:12;33.00;;;22.00;;
56299;SDS011;42209;6.376;-10.782;2024-01-07T02:28:40;33.80;;;22.88;;
56299;SDS011;42209;6.376;-10.782;2024-01-07T02:31:09;33.45;;;23.83;;
56299;SDS011;42209;6.376;-10.782;2024-01-07T02:33:37;31.70;;;22.65;;
56299;SDS011;42209;6.376;-10.782;2024-01-07T02:36:06;32.38;;;23.85;;
56299;SDS011;42209;6.376;-10.782;2024-01-07T02:38:34;33.05;;;23.13;;
56299;SDS011;42209;6.376;-10.782;2024-01-07T02:41:03;32.90;;;23.08;;
56299;SDS011;42209;6.376;-10.782;2024-01-07T02:43:32;35.72;;;23.75;;
56299;SDS011;42209;6.376;-10.782;2024-01-07T02:46:00;33.78;;;23.48;;
56299;SDS011;42209;6.376;-10.782;2024-01-07T02:50:57;28.73;;;22.42;;
56299;SDS011;42209;6.376;-10.782;2024-01-07T02:53:25;34.85;;;23.00;;
56299;SDS011;42209;6.376;-10.782;2024-01-07T02:55:53;33.97;;;23.25;;
56299;SDS011;42209;6.376;-10.782;2024-01-07T02:58:22;34.97;;;22.75;;
56299;SDS011;42209;6.376;-10.782;2024-01-07T03:00:50;31.25;;;23.40;;
56299;SDS011;42209;6.376;-10.782;2024-01-07T03:05:47;38.38;;;24.73;;
56299;SDS011;42209;6.376;-10.782;2024-01-07T03:10:44;30.80;;;23.73;;
56299;SDS011;42209;6.376;-10.782;2024-01-07T03:13:12;30.17;;;22.60;;
56299;SDS011;42209;6.376;-10.782;2024-01-07T03:15:40;35.83;;;25.98;;
56299;SDS011;42209;6.376;-10.782;2024-01-07T03:18:09;33.40;;;23.58;;
56299;SDS011;42209;6.376;-10.782;2024-01-07T03:23:05;36.28;;;23.75;;
56299;SDS011;42209;6.376;-10.782;2024-01-07T03:25:34;35.33;;;22.52;;
56299;SDS011;42209;6.376;-10.782;2024-01-07T03:28:02;33.92;;;23.83;;
56299;SDS011;42209;6.376;-10.782;2024-01-07T03:30:31;32.13;;;23.00;;
56299;SDS011;42209;6.376;-10.782;2024-01-07T03:35:28;33.47;;;23.77;;
56299;SDS011;42209;6.376;-10.782;2024-01-07T03:37:56;32.22;;;22.20;;
56299;SDS011;42209;6.376;-10.782;2024-01-07T03:40:24;32.40;;;23.20;;
56299;SDS011;42209;6.376;-10.782;2024-01-07T03:42:53;30.52;;;22.35;;
56299;SDS011;42209;6.376;-10.782;2024-01-07T03:45:22;29.75;;;22.83;;
56299;SDS011;42209;6.376;-10.782;2024-01-07T03:50:18;30.00;;;22.40;;
56299;SDS011;42209;6.376;-10.782;2024-01-07T03:52:47;32.70;;;23.45;;
56299;SDS011;42209;6.376;-10.782;2024-01-07T03:55:15;30.00;;;23.08;;
56299;SDS011;42209;6.376;-10.782;2024-01-07T03:57:44;32.13;;;22.00;;
56299;SDS011;42209;6.376;-10.782;2024-01-07T04:00:12;29.70;;;22.13;;
56299;SDS011;42209;6.376;-10.782;2024-01-07T04:02:41;27.88;;;22.80;;
56299;SDS011;42209;6.376;-10.782;2024-01-07T04:05:11;27.70;;;21.08;;
56299;SDS011;42209;6.376;-10.782;2024-01-07T04:07:40;34.60;;;23.88;;
56299;SDS011;42209;6.376;-10.782;2024-01-07T04:10:08;32.83;;;23.10;;
56299;SDS011;42209;6.376;-10.782;2024-01-07T04:15:05;28.80;;;21.65;;
56299;SDS011;42209;6.376;-10.782;2024-01-07T04:20:02;30.60;;;22.92;;
56299;SDS011;42209;6.376;-10.782;2024-01-07T04:24:59;29.05;;;20.98;;
56299;SDS011;42209;6.376;-10.782;2024-01-07T04:29:55;28.23;;;20.40;;
56299;SDS011;42209;6.376;-10.782;2024-01-07T04:32:24;27.23;;;20.38;;
56299;SDS011;42209;6.376;-10.782;2024-01-07T04:34:52;29.42;;;21.33;;
56299;SDS011;42209;6.376;-10.782;2024-01-07T04:37:21;26.73;;;21.17;;
56299;SDS011;42209;6.376;-10.782;2024-01-07T04:39:49;29.02;;;21.60;;
56299;SDS011;42209;6.376;-10.782;2024-01-07T04:42:18;29.48;;;21.30;;
56299;SDS011;42209;6.376;-10.782;2024-01-07T04:44:46;27.15;;;20.75;;
56299;SDS011;42209;6.376;-10.782;2024-01-07T04:47:28;27.17;;;21.33;;
56299;SDS011;42209;6.376;-10.782;2024-01-07T04:50:00;27.55;;;20.75;;
56299;SDS011;42209;6.376;-10.782;2024-01-07T04:52:29;32.42;;;21.65;;
56299;SDS011;42209;6.376;-10.782;2024-01-07T04:54:57;27.70;;;21.10;;
56299;SDS011;42209;6.376;-10.782;2024-01-07T04:59:54;30.85;;;20.98;;
56299;SDS011;42209;6.376;-10.782;2024-01-07T05:02:23;24.20;;;18.55;;
56299;SDS011;42209;6.376;-10.782;2024-01-07T05:04:52;26.05;;;20.13;;
56299;SDS011;42209;6.376;-10.782;2024-01-07T05:07:21;28.50;;;20.52;;
56299;SDS011;42209;6.376;-10.782;2024-01-07T05:09:49;25.75;;;19.55;;
56299;SDS011;42209;6.376;-10.782;2024-01-07T05:12:18;25.45;;;19.90;;
56299;SDS011;42209;6.376;-10.782;2024-01-07T05:14:46;27.17;;;19.50;;
56299;SDS011;42209;6.376;-10.782;2024-01-07T05:17:14;27.33;;;21.02;;
56299;SDS011;42209;6.376;-10.782;2024-01-07T05:19:43;26.38;;;18.90;;
56299;SDS011;42209;6.376;-10.782;2024-01-07T05:22:12;26.90;;;19.92;;
56299;SDS011;42209;6.376;-10.782;2024-01-07T05:24:40;24.27;;;19.05;;
56299;SDS011;42209;6.376;-10.782;2024-01-07T05:27:09;21.98;;;18.42;;
56299;SDS011;42209;6.376;-10.782;2024-01-07T05:29:37;25.60;;;19.50;;
56299;SDS011;42209;6.376;-10.782;2024-01-07T05:32:05;24.27;;;18.50;;
56299;SDS011;42209;6.376;-10.782;2024-01-07T05:34:34;23.42;;;18.92;;
56299;SDS011;42209;6.376;-10.782;2024-01-07T05:37:02;25.85;;;18.08;;
56299;SDS011;42209;6.376;-10.782;2024-01-07T05:39:31;23.25;;;17.40;;
56299;SDS011;42209;6.376;-10.782;2024-01-07T05:41:59;22.52;;;17.05;;
56299;SDS011;42209;6.376;-10.782;2024-01-07T05:44:27;23.35;;;17.00;;
56299;SDS011;42209;6.376;-10.782;2024-01-07T05:46:56;24.55;;;17.33;;
56299;SDS011;42209;6.376;-10.782;2024-01-07T05:49:24;24.05;;;17.73;;
56299;SDS011;42209;6.376;-10.782;2024-01-07T05:51:53;24.67;;;18.23;;
56299;SDS011;42209;6.376;-10.782;2024-01-07T05:54:21;20.48;;;17.35;;
56299;SDS011;42209;6.376;-10.782;2024-01-07T05:56:51;22.45;;;17.55;;
56299;SDS011;42209;6.376;-10.782;2024-01-07T05:59:19;21.88;;;18.23;;
56299;SDS011;42209;6.376;-10.782;2024-01-07T06:01:48;22.27;;;17.17;;
56299;SDS011;42209;6.376;-10.782;2024-01-07T06:04:16;22.90;;;18.55;;
56299;SDS011;42209;6.376;-10.782;2024-01-07T06:09:18;23.20;;;16.42;;
56299;SDS011;42209;6.376;-10.782;2024-01-07T06:11:46;18.95;;;16.15;;
56299;SDS011;42209;6.376;-10.782;2024-01-07T06:14:15;21.98;;;18.83;;
56299;SDS011;42209;6.376;-10.782;2024-01-07T06:16:43;25.92;;;17.63;;
56299;SDS011;42209;6.376;-10.782;2024-01-07T06:19:11;22.45;;;17.75;;
56299;SDS011;42209;6.376;-10.782;2024-01-07T06:24:08;20.27;;;15.10;;
56299;SDS011;42209;6.376;-10.782;2024-01-07T06:26:36;22.85;;;16.80;;
56299;SDS011;42209;6.376;-10.782;2024-01-07T06:29:05;21.90;;;16.50;;
56299;SDS011;42209;6.376;-10.782;2024-01-07T06:31:33;20.45;;;16.17;;
56299;SDS011;42209;6.376;-10.782;2024-01-07T06:34:02;24.45;;;16.88;;
56299;SDS011;42209;6.376;-10.782;2024-01-07T06:36:30;20.48;;;16.40;;
56299;SDS011;42209;6.376;-10.782;2024-01-07T06:38:59;21.30;;;16.10;;
56299;SDS011;42209;6.376;-10.782;2024-01-07T06:41:27;22.42;;;16.23;;
56299;SDS011;42209;6.376;-10.782;2024-01-07T06:43:55;17.95;;;16.05;;
56299;SDS011;42209;6.376;-10.782;2024-01-07T06:46:24;19.63;;;15.68;;
56299;SDS011;42209;6.376;-10.782;2024-01-07T06:48:52;20.92;;;16.20;;
56299;SDS011;42209;6.376;-10.782;2024-01-07T06:51:21;19.58;;;14.95;;
56299;SDS011;42209;6.376;-10.782;2024-01-07T06:53:50;21.77;;;15.45;;
56299;SDS011;42209;6.376;-10.782;2024-01-07T06:56:21;20.58;;;15.80;;
56299;SDS011;42209;6.376;-10.782;2024-01-07T07:01:21;22.58;;;15.82;;
56299;SDS011;42209;6.376;-10.782;2024-01-07T07:03:50;21.60;;;15.80;;
56299;SDS011;42209;6.376;-10.782;2024-01-07T07:06:19;19.67;;;15.77;;
56299;SDS011;42209;6.376;-10.782;2024-01-07T07:08:47;18.67;;;15.10;;
56299;SDS011;42209;6.376;-10.782;2024-01-07T07:11:16;21.08;;;14.55;;
56299;SDS011;42209;6.376;-10.782;2024-01-07T07:16:13;18.42;;;15.02;;
56299;SDS011;42209;6.376;-10.782;2024-01-07T07:18:41;19.70;;;15.18;;
56299;SDS011;42209;6.376;-10.782;2024-01-07T07:23:37;17.90;;;15.98;;
56299;SDS011;42209;6.376;-10.782;2024-01-07T07:26:06;22.67;;;15.77;;
56299;SDS011;42209;6.376;-10.782;2024-01-07T07:28:34;20.75;;;16.77;;
56299;SDS011;42209;6.376;-10.782;2024-01-07T07:31:03;21.42;;;16.60;;
56299;SDS011;42209;6.376;-10.782;2024-01-07T07:35:59;20.27;;;15.73;;
56299;SDS011;42209;6.376;-10.782;2024-01-07T07:38:28;20.05;;;15.43;;
56299;SDS011;42209;6.376;-10.782;2024-01-07T07:40:56;19.30;;;16.55;;
56299;SDS011;42209;6.376;-10.782;2024-01-07T07:43:25;21.65;;;16.83;;
56299;SDS011;42209;6.376;-10.782;2024-01-07T07:48:22;23.13;;;17.77;;
56299;SDS011;42209;6.376;-10.782;2024-01-07T07:50:50;21.65;;;18.23;;
56299;SDS011;42209;6.376;-10.782;2024-01-07T07:53:18;24.40;;;19.25;;
56299;SDS011;42209;6.376;-10.782;2024-01-07T07:55:46;23.90;;;18.20;;
56299;SDS011;42209;6.376;-10.782;2024-01-07T07:58:15;21.67;;;16.02;;
56299;SDS011;42209;6.376;-10.782;2024-01-07T08:00:43;21.15;;;16.35;;
56299;SDS011;42209;6.376;-10.782;2024-01-07T08:03:12;19.63;;;16.88;;
56299;SDS011;42209;6.376;-10.782;2024-01-07T08:05:40;20.52;;;16.52;;
56299;SDS011;42209;6.376;-10.782;2024-01-07T08:10:37;23.80;;;16.08;;
56299;SDS011;42209;6.376;-10.782;2024-01-07T08:13:05;19.52;;;15.82;;
56299;SDS011;42209;6.376;-10.782;2024-01-07T08:15:34;20.48;;;14.80;;
56299;SDS011;42209;6.376;-10.782;2024-01-07T08:18:03;18.52;;;15.85;;
56299;SDS011;42209;6.376;-10.782;2024-01-07T08:20:32;17.50;;;14.85;;
56299;SDS011;42209;6.376;-10.782;2024-01-07T08:23:00;19.25;;;14.85;;
56299;SDS011;42209;6.376;-10.782;2024-01-07T08:25:29;19.00;;;15.32;;
56299;SDS011;42209;6.376;-10.782;2024-01-07T08:27:57;19.20;;;15.90;;
56299;SDS011;42209;6.376;-10.782;2024-01-07T08:32:54;16.92;;;13.88;;
56299;SDS011;42209;6.376;-10.782;2024-01-07T08:35:23;18.48;;;15.50;;
56299;SDS011;42209;6.376;-10.782;2024-01-07T08:37:53;17.23;;;14.32;;
56299;SDS011;42209;6.376;-10.782;2024-01-07T08:40:22;19.67;;;14.05;;
56299;SDS011;42209;6.376;-10.782;2024-01-07T08:42:50;16.95;;;13.68;;
56299;SDS011;42209;6.376;-10.782;2024-01-07T08:45:19;16.08;;;13.95;;
56299;SDS011;42209;6.376;-10.782;2024-01-07T08:47:47;15.98;;;13.02;;
56299;SDS011;42209;6.376;-10.782;2024-01-07T08:52:44;14.43;;;12.85;;
56299;SDS011;42209;6.376;-10.782;2024-01-07T08:55:12;16.40;;;13.63;;
56299;SDS011;42209;6.376;-10.782;2024-01-07T09:00:09;14.55;;;13.02;;
56299;SDS011;42209;6.376;-10.782;2024-01-07T09:02:37;15.52;;;13.07;;
56299;SDS011;42209;6.376;-10.782;2024-01-07T09:05:09;14.90;;;13.35;;
56299;SDS011;42209;6.376;-10.782;2024-01-07T09:07:38;15.68;;;11.57;;
56299;SDS011;42209;6.376;-10.782;2024-01-07T09:10:07;14.48;;;12.93;;
56299;SDS011;42209;6.376;-10.782;2024-01-07T09:15:04;14.85;;;13.23;;
56299;SDS011;42209;6.376;-10.782;2024-01-07T09:17:36;15.98;;;13.32;;
56299;SDS011;42209;6.376;-10.782;2024-01-07T09:20:07;14.77;;;12.85;;
56299;SDS011;42209;6.376;-10.782;2024-01-07T09:22:36;14.77;;;13.25;;
56299;SDS011;42209;6.376;-10.782;2024-01-07T09:25:05;13.93;;;11.55;;
56299;SDS011;42209;6.376;-10.782;2024-01-07T09:27:34;16.80;;;11.48;;
56299;SDS011;42209;6.376;-10.782;2024-01-07T09:32:31;14.35;;;11.52;;
56299;SDS011;42209;6.376;-10.782;2024-01-07T09:35:04;15.43;;;12.38;;
56299;SDS011;42209;6.376;-10.782;2024-01-07T09:37:33;14.20;;;11.90;;
56299;SDS011;42209;6.376;-10.782;2024-01-07T09:42:30;18.92;;;12.27;;
56299;SDS011;42209;6.376;-10.782;2024-01-07T09:45:02;16.40;;;11.43;;
56299;SDS011;42209;6.376;-10.782;2024-01-07T09:47:31;18.65;;;12.20;;
56299;SDS011;42209;6.376;-10.782;2024-01-07T09:52:28;15.57;;;12.05;;
56299;SDS011;42209;6.376;-10.782;2024-01-07T09:54:58;14.63;;;11.63;;
56299;SDS011;42209;6.376;-10.782;2024-01-07T09:57:29;18.90;;;12.32;;
56299;SDS011;42209;6.376;-10.782;2024-01-07T10:02:38;16.98;;;11.77;;
56299;SDS011;42209;6.376;-10.782;2024-01-07T10:05:07;15.57;;;11.07;;
56299;SDS011;42209;6.376;-10.782;2024-01-07T10:07:35;13.15;;;11.15;;
56299;SDS011;42209;6.376;-10.782;2024-01-07T10:10:13;16.55;;;11.60;;
56299;SDS011;42209;6.376;-10.782;2024-01-07T10:12:45;13.55;;;10.43;;
56299;SDS011;42209;6.376;-10.782;2024-01-07T10:15:16;13.23;;;9.75;;
56299;SDS011;42209;6.376;-10.782;2024-01-07T10:17:45;15.82;;;11.13;;
56299;SDS011;42209;6.376;-10.782;2024-01-07T10:20:14;12.18;;;10.13;;
56299;SDS011;42209;6.376;-10.782;2024-01-07T10:22:50;10.80;;;9.68;;
56299;SDS011;42209;6.376;-10.782;2024-01-07T10:25:20;15.40;;;10.27;;
56299;SDS011;42209;6.376;-10.782;2024-01-07T10:27:49;13.48;;;10.45;;
56299;SDS011;42209;6.376;-10.782;2024-01-07T10:30:17;13.02;;;9.07;;
56299;SDS011;42209;6.376;-10.782;2024-01-07T10:32:46;13.15;;;10.20;;
56299;SDS011;42209;6.376;-10.782;2024-01-07T10:35:14;13.73;;;10.98;;
56299;SDS011;42209;6.376;-10.782;2024-01-07T10:37:49;15.93;;;11.55;;
56299;SDS011;42209;6.376;-10.782;2024-01-07T10:40:17;13.38;;;9.18;;
56299;SDS011;42209;6.376;-10.782;2024-01-07T10:42:47;14.57;;;10.10;;
56299;SDS011;42209;6.376;-10.782;2024-01-07T10:45:17;12.07;;;9.95;;
56299;SDS011;42209;6.376;-10.782;2024-01-07T10:47:47;12.32;;;9.07;;
56299;SDS011;42209;6.376;-10.782;2024-01-07T10:50:17;11.05;;;9.15;;
56299;SDS011;42209;6.376;-10.782;2024-01-07T10:52:49;10.27;;;8.75;;
56299;SDS011;42209;6.376;-10.782;2024-01-07T10:55:25;15.57;;;9.57;;
56299;SDS011;42209;6.376;-10.782;2024-01-07T10:57:58;13.20;;;9.75;;
56299;SDS011;42209;6.376;-10.782;2024-01-07T11:00:30;10.77;;;8.60;;
56299;SDS011;42209;6.376;-10.782;2024-01-07T11:03:06;12.68;;;9.40;;
56299;SDS011;42209;6.376;-10.782;2024-01-07T11:05:59;11.57;;;9.18;;
56299;SDS011;42209;6.376;-10.782;2024-01-07T11:08:34;11.40;;;9.25;;
56299;SDS011;42209;6.376;-10.782;2024-01-07T11:11:22;10.48;;;8.82;;
56299;SDS011;42209;6.376;-10.782;2024-01-07T11:14:00;11.05;;;8.73;;
56299;SDS011;42209;6.376;-10.782;2024-01-07T11:16:42;10.30;;;8.63;;
56299;SDS011;42209;6.376;-10.782;2024-01-07T11:19:15;12.18;;;9.82;;
56299;SDS011;42209;6.376;-10.782;2024-01-07T11:21:48;11.73;;;9.27;;
56299;SDS011;42209;6.376;-10.782;2024-01-07T11:25:01;8.98;;;8.05;;
56299;SDS011;42209;6.376;-10.782;2024-01-07T11:27:08;11.68;;;8.48;;
56299;SDS011;42209;6.376;-10.782;2024-01-07T11:29:38;10.90;;;8.48;;
56299;SDS011;42209;6.376;-10.782;2024-01-07T11:32:11;9.70;;;8.68;;
56299;SDS011;42209;6.376;-10.782;2024-01-07T11:34:43;10.40;;;9.02;;
56299;SDS011;42209;6.376;-10.782;2024-01-07T11:37:12;13.75;;;8.38;;
56299;SDS011;42209;6.376;-10.782;2024-01-07T11:39:45;9.98;;;8.95;;
56299;SDS011;42209;6.376;-10.782;2024-01-07T11:42:14;11.48;;;8.02;;
56299;SDS011;42209;6.376;-10.782;2024-01-07T11:44:47;10.75;;;7.68;;
56299;SDS011;42209;6.376;-10.782;2024-01-07T11:47:16;9.75;;;7.55;;
56299;SDS011;42209;6.376;-10.782;2024-01-07T11:49:45;11.38;;;8.13;;
56299;SDS011;42209;6.376;-10.782;2024-01-07T11:52:15;9.77;;;8.05;;
56299;SDS011;42209;6.376;-10.782;2024-01-07T11:54:44;10.05;;;8.30;;
56299;SDS011;42209;6.376;-10.782;2024-01-07T11:57:16;8.73;;;7.45;;
56299;SDS011;42209;6.376;-10.782;2024-01-07T12:02:14;7.88;;;6.68;;
56299;SDS011;42209;6.376;-10.782;2024-01-07T12:04:45;9.13;;;7.30;;
56299;SDS011;42209;6.376;-10.782;2024-01-07T12:07:14;9.52;;;6.95;;
56299;SDS011;42209;6.376;-10.782;2024-01-07T12:09:44;9.70;;;7.25;;
56299;SDS011;42209;6.376;-10.782;2024-01-07T12:12:13;8.30;;;6.90;;
56299;SDS011;42209;6.376;-10.782;2024-01-07T12:14:41;9.50;;;7.15;;
56299;SDS011;42209;6.376;-10.782;2024-01-07T12:19:40;8.07;;;7.25;;
56299;SDS011;42209;6.376;-10.782;2024-01-07T12:22:09;10.70;;;6.72;;
56299;SDS011;42209;6.376;-10.782;2024-01-07T12:24:37;9.13;;;7.78;;
56299;SDS011;42209;6.376;-10.782;2024-01-07T12:27:06;9.27;;;6.53;;
56299;SDS011;42209;6.376;-10.782;2024-01-07T12:32:04;8.45;;;6.22;;
56299;SDS011;42209;6.376;-10.782;2024-01-07T12:34:33;7.18;;;6.07;;
56299;SDS011;42209;6.376;-10.782;2024-01-07T12:37:03;10.35;;;8.25;;
56299;SDS011;42209;6.376;-10.782;2024-01-07T12:39:32;8.50;;;6.63;;
56299;SDS011;42209;6.376;-10.782;2024-01-07T12:42:00;7.63;;;6.90;;
56299;SDS011;42209;6.376;-10.782;2024-01-07T12:44:29;7.95;;;6.22;;
56299;SDS011;42209;6.376;-10.782;2024-01-07T12:46:57;8.35;;;6.57;;
56299;SDS011;42209;6.376;-10.782;2024-01-07T12:49:25;9.68;;;6.10;;
56299;SDS011;42209;6.376;-10.782;2024-01-07T12:51:54;9.40;;;6.50;;
56299;SDS011;42209;6.376;-10.782;2024-01-07T12:56:51;9.30;;;7.03;;
56299;SDS011;42209;6.376;-10.782;2024-01-07T12:59:20;7.07;;;6.35;;
56299;SDS011;42209;6.376;-10.782;2024-01-07T13:01:48;9.00;;;5.97;;
56299;SDS011;42209;6.376;-10.782;2024-01-07T13:04:18;6.82;;;5.97;;
56299;SDS011;42209;6.376;-10.782;2024-01-07T13:06:47;8.48;;;6.45;;
56299;SDS011;42209;6.376;-10.782;2024-01-07T13:11:44;8.43;;;6.38;;
56299;SDS011;42209;6.376;-10.782;2024-01-07T13:14:13;7.70;;;6.93;;
56299;SDS011;42209;6.376;-10.782;2024-01-07T13:16:41;8.35;;;6.22;;
56299;SDS011;42209;6.376;-10.782;2024-01-07T13:19:09;8.90;;;6.55;;
56299;SDS011;42209;6.376;-10.782;2024-01-07T13:21:38;9.73;;;7.15;;
56299;SDS011;42209;6.376;-10.782;2024-01-07T13:24:09;7.72;;;6.07;;
56299;SDS011;42209;6.376;-10.782;2024-01-07T13:26:37;7.25;;;6.07;;
56299;SDS011;42209;6.376;-10.782;2024-01-07T13:31:34;8.32;;;6.55;;
56299;SDS011;42209;6.376;-10.782;2024-01-07T13:34:02;8.32;;;5.93;;
56299;SDS011;42209;6.376;-10.782;2024-01-07T13:39:00;7.55;;;6.45;;
56299;SDS011;42209;6.376;-10.782;2024-01-07T13:41:30;7.63;;;6.55;;
56299;SDS011;42209;6.376;-10.782;2024-01-07T13:43:58;7.82;;;6.82;;
56299;SDS011;42209;6.376;-10.782;2024-01-07T13:46:27;9.15;;;6.60;;
56299;SDS011;42209;6.376;-10.782;2024-01-07T13:48:57;9.55;;;6.40;;
56299;SDS011;42209;6.376;-10.782;2024-01-07T13:51:26;8.25;;;6.68;;
56299;SDS011;42209;6.376;-10.782;2024-01-07T13:53:54;6.40;;;5.78;;
56299;SDS011;42209;6.376;-10.782;2024-01-07T13:56:23;7.13;;;6.43;;
56299;SDS011;42209;6.376;-10.782;2024-01-07T13:58:51;7.78;;;6.40;;
56299;SDS011;42209;6.376;-10.782;2024-01-07T14:01:20;8.88;;;6.43;;
56299;SDS011;42209;6.376;-10.782;2024-01-07T14:03:49;7.10;;;6.22;;
56299;SDS011;42209;6.376;-10.782;2024-01-07T14:06:17;7.10;;;6.18;;
56299;SDS011;42209;6.376;-10.782;2024-01-07T14:08:45;8.07;;;6.15;;
56299;SDS011;42209;6.376;-10.782;2024-01-07T14:11:14;7.03;;;6.30;;
56299;SDS011;42209;6.376;-10.782;2024-01-07T14:13:42;7.70;;;5.93;;
56299;SDS011;42209;6.376;-10.782;2024-01-07T14:16:11;10.27;;;6.13;;
56299;SDS011;42209;6.376;-10.782;2024-01-07T14:18:39;7.78;;;6.07;;
56299;SDS011;42209;6.376;-10.782;2024-01-07T14:21:08;7.78;;;6.57;;
56299;SDS011;42209;6.376;-10.782;2024-01-07T14:23:37;8.82;;;7.22;;
56299;SDS011;42209;6.376;-10.782;2024-01-07T14:26:05;8.00;;;6.28;;
56299;SDS011;42209;6.376;-10.782;2024-01-07T14:28:34;6.90;;;6.18;;
56299;SDS011;42209;6.376;-10.782;2024-01-07T14:31:02;8.13;;;6.00;;
56299;SDS011;42209;6.376;-10.782;2024-01-07T14:33:31;7.53;;;5.75;;
56299;SDS011;42209;6.376;-10.782;2024-01-07T14:36:01;6.72;;;6.00;;
56299;SDS011;42209;6.376;-10.782;2024-01-07T14:38:31;7.97;;;5.97;;
56299;SDS011;42209;6.376;-10.782;2024-01-07T14:41:02;8.80;;;6.50;;
56299;SDS011;42209;6.376;-10.782;2024-01-07T14:45:59;8.75;;;6.43;;
56299;SDS011;42209;6.376;-10.782;2024-01-07T14:48:27;8.60;;;6.68;;
56299;SDS011;42209;6.376;-10.782;2024-01-07T14:50:56;6.90;;;6.20;;
56299;SDS011;42209;6.376;-10.782;2024-01-07T14:53:24;11.73;;;7.10;;
56299;SDS011;42209;6.376;-10.782;2024-01-07T14:55:53;6.93;;;5.60;;
56299;SDS011;42209;6.376;-10.782;2024-01-07T14:58:22;8.55;;;6.38;;
56299;SDS011;42209;6.376;-10.782;2024-01-07T15:00:57;7.07;;;5.88;;
56299;SDS011;42209;6.376;-10.782;2024-01-07T15:03:25;7.85;;;5.95;;
56299;SDS011;42209;6.376;-10.782;2024-01-07T15:05:56;8.00;;;5.32;;
56299;SDS011;42209;6.376;-10.782;2024-01-07T15:08:25;6.47;;;5.75;;
56299;SDS011;42209;6.376;-10.782;2024-01-07T15:10:53;8.50;;;6.72;;
56299;SDS011;42209;6.376;-10.782;2024-01-07T15:13:22;7.10;;;6.40;;
56299;SDS011;42209;6.376;-10.782;2024-01-07T15:15:53;7.60;;;5.85;;
56299;SDS011;42209;6.376;-10.782;2024-01-07T15:20:51;7.68;;;5.68;;
56299;SDS011;42209;6.376;-10.782;2024-01-07T15:23:19;8.90;;;6.13;;
56299;SDS011;42209;6.376;-10.782;2024-01-07T15:25:48;7.75;;;6.40;;
56299;SDS011;42209;6.376;-10.782;2024-01-07T15:28:16;8.48;;;5.63;;
56299;SDS011;42209;6.376;-10.782;2024-01-07T15:30:45;8.23;;;6.22;;
56299;SDS011;42209;6.376;-10.782;2024-01-07T15:33:15;6.97;;;6.28;;
56299;SDS011;42209;6.376;-10.782;2024-01-07T15:35:43;8.35;;;6.22;;
56299;SDS011;42209;6.376;-10.782;2024-01-07T15:40:40;7.90;;;5.30;;
56299;SDS011;42209;6.376;-10.782;2024-01-07T15:43:09;8.05;;;5.72;;
56299;SDS011;42209;6.376;-10.782;2024-01-07T15:45:38;6.70;;;5.70;;
56299;SDS011;42209;6.376;-10.782;2024-01-07T15:48:06;10.18;;;5.53;;
56299;SDS011;42209;6.376;-10.782;2024-01-07T15:50:35;6.90;;;5.85;;
56299;SDS011;42209;6.376;-10.782;2024-01-07T15:53:03;12.77;;;6.40;;
56299;SDS011;42209;6.376;-10.782;2024-01-07T15:55:37;8.57;;;6.72;;
56299;SDS011;42209;6.376;-10.782;2024-01-07T15:58:05;8.00;;;6.25;;
56299;SDS011;42209;6.376;-10.782;2024-01-07T16:00:34;7.28;;;6.10;;
56299;SDS011;42209;6.376;-10.782;2024-01-07T16:03:02;6.97;;;5.43;;
56299;SDS011;42209;6.376;-10.782;2024-01-07T16:05:31;7.30;;;5.68;;
56299;SDS011;42209;6.376;-10.782;2024-01-07T16:08:00;8.40;;;6.38;;
56299;SDS011;42209;6.376;-10.782;2024-01-07T16:10:28;8.52;;;5.93;;
56299;SDS011;42209;6.376;-10.782;2024-01-07T16:12:57;7.60;;;5.38;;
56299;SDS011;42209;6.376;-10.782;2024-01-07T16:15:25;5.70;;;5.13;;
56299;SDS011;42209;6.376;-10.782;2024-01-07T16:17:53;7.07;;;6.20;;
56299;SDS011;42209;6.376;-10.782;2024-01-07T16:22:50;9.35;;;6.50;;
56299;SDS011;42209;6.376;-10.782;2024-01-07T16:25:19;7.07;;;5.47;;